createdAt,value
2019-03-27T00:01:58.300Z,2.30
2019-03-27T00:05:02.406Z,2.02
2019-03-27T00:08:06.518Z,2.30
2019-03-27T00:11:10.651Z,2.42
2019-03-27T00:14:17.818Z,2.30
2019-03-27T00:17:21.936Z,2.20
2019-03-27T00:20:26.050Z,2.10
2019-03-27T00:23:31.179Z,2.40
2019-03-27T00:26:35.299Z,2.20
2019-03-27T00:29:39.423Z,2.30
2019-03-27T00:32:43.546Z,2.20
2019-03-27T00:35:47.651Z,2.20
2019-03-27T00:38:51.765Z,2.17
2019-03-27T00:41:57.118Z,2.30
2019-03-27T00:45:02.265Z,1.87
2019-03-27T00:48:07.391Z,2.10
2019-03-27T00:51:11.527Z,2.20
2019-03-27T00:54:15.630Z,2.15
2019-03-27T00:57:19.989Z,2.20
2019-03-27T01:00:26.823Z,2.10
2019-03-27T01:03:30.874Z,1.90
2019-03-27T01:06:35.034Z,2.20
2019-03-27T01:09:39.166Z,2.25
2019-03-27T01:12:43.297Z,2.00
2019-03-27T01:15:47.521Z,2.27
2019-03-27T01:18:51.645Z,2.12
2019-03-27T01:21:56.814Z,2.33
2019-03-27T01:25:00.877Z,2.20
2019-03-27T01:28:05.175Z,2.25
2019-03-27T01:31:09.323Z,2.00
2019-03-27T01:34:13.646Z,1.95
2019-03-27T01:37:17.932Z,1.98
2019-03-27T01:40:22.253Z,2.27
2019-03-27T01:43:26.407Z,2.08
2019-03-27T01:46:32.544Z,2.15
2019-03-27T01:49:37.699Z,2.30
2019-03-27T01:52:41.820Z,2.10
2019-03-27T01:55:46.006Z,2.20
2019-03-27T01:58:50.248Z,2.47
2019-03-27T02:01:54.586Z,2.40
2019-03-27T02:04:58.700Z,2.40
2019-03-27T02:08:02.787Z,2.10
2019-03-27T02:11:06.909Z,2.50
2019-03-27T02:14:11.124Z,2.00
2019-03-27T02:17:15.343Z,2.30
2019-03-27T02:20:19.469Z,2.20
2019-03-27T02:23:23.810Z,2.20
2019-03-27T02:26:29.122Z,2.15
2019-03-27T02:29:35.977Z,2.12
2019-03-27T02:32:40.283Z,2.25
2019-03-27T02:35:44.535Z,2.00
2019-03-27T02:38:48.662Z,2.30
2019-03-27T02:41:52.737Z,2.33
2019-03-27T02:44:57.907Z,2.15
2019-03-27T02:48:02.038Z,2.50
2019-03-27T02:51:08.178Z,2.47
2019-03-27T02:54:13.507Z,1.90
2019-03-27T02:57:17.723Z,2.27
2019-03-27T03:00:22.424Z,2.40
2019-03-27T03:03:26.486Z,2.15
2019-03-27T03:06:31.632Z,2.45
2019-03-27T03:09:35.742Z,2.25
2019-03-27T03:12:40.077Z,2.10
2019-03-27T03:15:44.129Z,2.45
2019-03-27T03:18:48.494Z,2.40
2019-03-27T03:21:52.734Z,2.12
2019-03-27T03:24:57.821Z,2.25
2019-03-27T03:28:02.077Z,2.30
2019-03-27T03:31:06.174Z,2.20
2019-03-27T03:34:10.311Z,1.90
2019-03-27T03:37:14.452Z,2.30
2019-03-27T03:40:18.655Z,2.20
2019-03-27T03:43:22.769Z,2.27
2019-03-27T03:46:26.937Z,2.20
2019-03-27T03:49:31.082Z,2.08
2019-03-27T03:52:35.194Z,2.30
2019-03-27T03:55:39.460Z,2.30
2019-03-27T03:58:43.615Z,2.17
2019-03-27T04:01:48.766Z,2.30
2019-03-27T04:04:52.819Z,2.30
2019-03-27T04:07:57.120Z,2.55
2019-03-27T04:11:01.325Z,2.58
2019-03-27T04:14:06.462Z,2.33
2019-03-27T04:17:17.632Z,2.12
2019-03-27T04:20:16.527Z,2.22
2019-03-27T04:23:20.649Z,2.40
2019-03-27T04:26:24.765Z,2.08
2019-03-27T04:29:28.874Z,2.50
2019-03-27T04:32:32.998Z,2.33
2019-03-27T04:35:37.119Z,2.20
2019-03-27T04:38:43.269Z,1.90
2019-03-27T04:41:47.385Z,2.20
2019-03-27T04:44:52.525Z,1.87
2019-03-27T04:47:56.752Z,2.12
2019-03-27T04:51:00.859Z,2.05
2019-03-27T04:54:04.975Z,2.25
2019-03-27T04:57:09.182Z,2.35
2019-03-27T05:00:13.442Z,2.62
2019-03-27T05:03:17.693Z,2.20
2019-03-27T05:06:21.968Z,2.10
2019-03-27T05:09:26.075Z,2.55
2019-03-27T05:12:30.183Z,2.20
2019-03-27T05:15:34.287Z,2.55
2019-03-27T05:18:38.514Z,2.20
2019-03-27T05:21:42.725Z,2.40
2019-03-27T05:24:46.837Z,1.95
2019-03-27T05:27:51.995Z,2.52
2019-03-27T05:30:58.154Z,2.37
2019-03-27T05:34:03.301Z,2.20
2019-03-27T05:37:07.885Z,2.20
2019-03-27T05:40:12.321Z,2.20
2019-03-27T05:43:16.454Z,2.10
2019-03-27T05:46:20.636Z,1.87
2019-03-27T05:49:24.893Z,2.08
2019-03-27T05:52:28.989Z,2.00
2019-03-27T05:55:33.119Z,1.95
2019-03-27T05:58:37.456Z,2.00
2019-03-27T06:01:41.573Z,2.45
2019-03-27T06:04:45.676Z,1.95
2019-03-27T06:07:49.783Z,2.52
2019-03-27T06:10:54.123Z,2.33
2019-03-27T06:13:59.250Z,1.95
2019-03-27T06:17:03.501Z,1.92
2019-03-27T06:20:08.884Z,2.20
2019-03-27T06:23:13.009Z,2.25
2019-03-27T06:26:17.133Z,1.90
2019-03-27T06:29:21.250Z,2.12
2019-03-27T06:32:25.360Z,2.40
2019-03-27T06:35:29.490Z,2.40
2019-03-27T06:38:34.635Z,2.20
2019-03-27T06:41:38.737Z,2.08
2019-03-27T06:44:42.858Z,1.90
2019-03-27T06:47:47.993Z,2.40
2019-03-27T06:50:52.117Z,2.08
2019-03-27T06:53:56.251Z,1.87
2019-03-27T06:57:01.315Z,2.10
2019-03-27T07:00:07.127Z,2.08
2019-03-27T07:03:11.220Z,1.87
2019-03-27T07:06:15.267Z,2.12
2019-03-27T07:09:19.460Z,1.70
2019-03-27T07:12:23.577Z,1.60
2019-03-27T07:15:28.712Z,2.00
2019-03-27T07:18:40.136Z,2.02
2019-03-27T07:21:38.725Z,2.25
2019-03-27T07:24:42.807Z,1.92
2019-03-27T07:27:46.916Z,2.20
2019-03-27T07:30:51.106Z,2.00
2019-03-27T07:33:55.265Z,1.92
2019-03-27T07:37:00.391Z,2.00
2019-03-27T07:40:04.804Z,1.82
2019-03-27T07:43:09.064Z,2.30
2019-03-27T07:46:15.196Z,2.00
2019-03-27T07:49:19.385Z,2.08
2019-03-27T07:52:23.656Z,2.22
2019-03-27T07:55:27.857Z,2.60
2019-03-27T07:58:33.127Z,2.00
2019-03-27T08:01:37.420Z,2.30
2019-03-27T08:04:41.533Z,2.00
2019-03-27T08:07:46.025Z,2.17
2019-03-27T08:10:50.371Z,2.08
2019-03-27T08:13:54.508Z,2.30
2019-03-27T08:16:58.674Z,2.20
2019-03-27T08:20:02.921Z,2.25
2019-03-27T08:23:08.044Z,2.00
2019-03-27T08:26:12.279Z,2.40
2019-03-27T08:29:16.482Z,2.40
2019-03-27T08:32:20.606Z,2.02
2019-03-27T08:35:24.757Z,2.17
2019-03-27T08:38:29.052Z,2.25
2019-03-27T08:41:33.191Z,2.02
2019-03-27T08:44:37.361Z,2.27
2019-03-27T08:47:41.712Z,2.33
2019-03-27T08:50:46.109Z,2.02
2019-03-27T08:53:51.448Z,2.10
2019-03-27T08:56:55.644Z,2.50
2019-03-27T08:59:59.773Z,2.30
2019-03-27T09:03:04.215Z,2.30
2019-03-27T09:06:08.529Z,2.17
2019-03-27T09:09:12.662Z,2.30
2019-03-27T09:12:16.871Z,2.12
2019-03-27T09:15:21.101Z,2.42
2019-03-27T09:18:25.219Z,1.90
2019-03-27T09:21:29.435Z,2.35
2019-03-27T09:24:34.698Z,2.22
2019-03-27T09:27:38.779Z,2.20
2019-03-27T09:30:43.943Z,1.80
2019-03-27T09:33:48.056Z,2.08
2019-03-27T09:36:52.151Z,2.00
2019-03-27T09:39:56.262Z,2.08
2019-03-27T09:43:00.397Z,2.10
2019-03-27T09:46:04.504Z,2.27
2019-03-27T09:49:09.736Z,2.15
2019-03-27T09:52:13.982Z,1.90
2019-03-27T09:55:19.125Z,2.00
2019-03-27T09:58:24.248Z,2.10
2019-03-27T10:01:28.431Z,2.22
2019-03-27T10:04:32.671Z,2.80
2019-03-27T10:07:37.813Z,2.30
2019-03-27T10:10:41.933Z,2.37
2019-03-27T10:13:46.383Z,2.42
2019-03-27T10:16:50.564Z,2.62
2019-03-27T10:20:03.211Z,2.50
2019-03-27T10:23:00.658Z,2.52
2019-03-27T10:26:04.760Z,2.30
2019-03-27T10:29:09.898Z,1.90
2019-03-27T10:32:14.224Z,2.27
2019-03-27T10:35:18.359Z,2.30
2019-03-27T10:38:22.445Z,2.20
2019-03-27T10:41:26.621Z,2.42
2019-03-27T10:44:30.919Z,2.52
2019-03-27T10:47:35.115Z,2.70
2019-03-27T10:50:39.445Z,2.10
2019-03-27T10:53:43.757Z,2.40
2019-03-27T10:56:47.959Z,2.70
2019-03-27T10:59:52.191Z,2.30
2019-03-27T11:02:56.400Z,2.30
2019-03-27T11:06:00.783Z,2.75
2019-03-27T11:09:08.087Z,2.45
2019-03-27T11:12:13.271Z,2.47
2019-03-27T11:15:18.476Z,2.52
2019-03-27T11:18:22.804Z,2.20
2019-03-27T11:21:27.028Z,2.00
2019-03-27T11:24:31.187Z,2.42
2019-03-27T11:27:36.354Z,2.05
2019-03-27T11:30:41.824Z,2.45
2019-03-27T11:33:46.273Z,2.47
2019-03-27T11:36:51.034Z,1.90
2019-03-27T11:39:56.208Z,2.30
2019-03-27T11:43:00.359Z,2.15
2019-03-27T11:46:04.457Z,2.40
2019-03-27T11:49:08.561Z,2.30
2019-03-27T11:52:12.743Z,2.37
2019-03-27T11:55:16.793Z,2.33
2019-03-27T11:58:20.942Z,2.40
2019-03-27T12:01:38.647Z,2.40
2019-03-27T12:04:30.988Z,2.40
2019-03-27T12:07:35.139Z,2.10
2019-03-27T12:10:39.255Z,2.42
2019-03-27T12:13:43.421Z,2.50
2019-03-27T12:16:50.184Z,2.40
2019-03-27T12:19:54.246Z,2.30
2019-03-27T12:22:58.372Z,2.17
2019-03-27T12:26:02.455Z,2.20
2019-03-27T12:29:06.577Z,2.37
2019-03-27T12:32:10.680Z,2.80
2019-03-27T12:35:14.799Z,2.50
2019-03-27T12:38:19.940Z,2.02
2019-03-27T12:41:25.121Z,2.37
2019-03-27T12:44:29.186Z,2.50
2019-03-27T12:47:33.380Z,1.90
2019-03-27T12:50:37.683Z,2.30
2019-03-27T12:53:41.979Z,2.35
2019-03-27T12:56:46.083Z,2.30
2019-03-27T12:59:51.202Z,2.15
2019-03-27T13:02:56.361Z,2.35
2019-03-27T13:06:00.503Z,2.75
2019-03-27T13:09:06.101Z,2.37
2019-03-27T13:12:10.351Z,2.90
2019-03-27T13:15:14.458Z,2.40
2019-03-27T13:18:18.551Z,2.50
2019-03-27T13:21:26.493Z,2.33
2019-03-27T13:24:28.820Z,2.10
2019-03-27T13:27:32.959Z,2.45
2019-03-27T13:30:37.072Z,2.10
2019-03-27T13:33:41.427Z,2.47
2019-03-27T13:36:47.666Z,2.47
2019-03-27T13:39:51.948Z,2.25
2019-03-27T13:42:56.697Z,2.50
2019-03-27T13:46:00.901Z,1.92
2019-03-27T13:49:05.158Z,2.35
2019-03-27T13:52:09.545Z,2.30
2019-03-27T13:55:13.988Z,2.33
2019-03-27T13:58:18.493Z,2.10
2019-03-27T14:01:22.976Z,2.30
2019-03-27T14:04:27.039Z,2.00
2019-03-27T14:07:31.189Z,2.85
2019-03-27T14:10:35.246Z,2.40
2019-03-27T14:13:43.292Z,2.72
2019-03-27T14:16:46.450Z,2.47
2019-03-27T14:19:50.760Z,2.85
2019-03-27T14:22:55.020Z,2.17
2019-03-27T14:25:59.223Z,2.70
2019-03-27T14:29:03.274Z,2.40
2019-03-27T14:32:07.395Z,2.35
2019-03-27T14:35:11.500Z,2.62
2019-03-27T14:38:15.600Z,2.65
2019-03-27T14:41:21.810Z,2.80
2019-03-27T14:44:25.888Z,2.47
2019-03-27T14:47:29.997Z,2.67
2019-03-27T14:50:34.116Z,2.75
2019-03-27T14:53:38.225Z,2.30
2019-03-27T14:56:42.355Z,2.87
2019-03-27T14:59:47.497Z,2.52
2019-03-27T15:02:51.647Z,2.60
2019-03-27T15:05:55.920Z,2.77
2019-03-27T15:09:00.075Z,2.37
2019-03-27T15:12:04.201Z,2.90
2019-03-27T15:15:09.008Z,2.70
2019-03-27T15:18:13.204Z,3.05
2019-03-27T15:21:17.290Z,2.52
2019-03-27T15:24:21.414Z,2.80
2019-03-27T15:27:25.548Z,2.80
2019-03-27T15:30:29.649Z,3.12
2019-03-27T15:33:33.783Z,3.30
2019-03-27T15:36:37.874Z,3.20
2019-03-27T15:39:42.034Z,2.77
2019-03-27T15:42:46.146Z,2.92
2019-03-27T15:45:50.239Z,2.72
2019-03-27T15:48:54.382Z,2.87
2019-03-27T15:51:58.449Z,3.10
2019-03-27T15:55:02.605Z,2.62
2019-03-27T15:58:06.708Z,2.90
2019-03-27T16:01:11.037Z,2.75
2019-03-27T16:04:15.157Z,2.80
2019-03-27T16:07:19.247Z,2.90
2019-03-27T16:10:23.480Z,2.87
2019-03-27T16:13:27.697Z,2.65
2019-03-27T16:16:31.797Z,3.15
2019-03-27T16:19:36.807Z,2.92
2019-03-27T16:22:50.440Z,2.60
2019-03-27T16:25:47.012Z,2.50
2019-03-27T16:28:51.239Z,2.40
2019-03-27T16:31:56.576Z,3.00
2019-03-27T16:35:01.963Z,2.55
2019-03-27T16:38:07.207Z,2.80
2019-03-27T16:41:11.325Z,2.98
2019-03-27T16:44:17.587Z,2.40
2019-03-27T16:47:22.867Z,2.72
2019-03-27T16:50:27.197Z,2.62
2019-03-27T16:53:31.546Z,2.92
2019-03-27T16:56:35.771Z,2.45
2019-03-27T16:59:39.976Z,2.83
2019-03-27T17:02:45.200Z,3.00
2019-03-27T17:05:54.113Z,3.15
2019-03-27T17:08:55.287Z,2.95
2019-03-27T17:11:59.366Z,3.45
2019-03-27T17:15:03.618Z,3.37
2019-03-27T17:18:07.915Z,3.15
2019-03-27T17:21:12.172Z,2.80
2019-03-27T17:24:16.260Z,3.15
2019-03-27T17:27:20.374Z,3.20
2019-03-27T17:30:25.587Z,2.90
2019-03-27T17:33:29.823Z,2.98
2019-03-27T17:36:34.027Z,2.98
2019-03-27T17:39:38.124Z,3.08
2019-03-27T17:42:42.427Z,2.65
2019-03-27T17:45:46.717Z,2.85
2019-03-27T17:48:50.859Z,2.55
2019-03-27T17:51:54.949Z,3.15
2019-03-27T17:54:59.055Z,2.50
2019-03-27T17:58:03.251Z,2.65
2019-03-27T18:01:07.488Z,2.85
2019-03-27T18:04:11.618Z,3.08
2019-03-27T18:07:15.807Z,3.10
2019-03-27T18:10:20.043Z,2.90
2019-03-27T18:13:24.185Z,2.33
2019-03-27T18:16:28.395Z,2.92
2019-03-27T18:19:32.596Z,2.52
2019-03-27T18:22:36.724Z,2.70
2019-03-27T18:25:40.819Z,2.85
2019-03-27T18:28:44.941Z,2.70
2019-03-27T18:31:49.059Z,2.70
2019-03-27T18:34:53.195Z,2.40
2019-03-27T18:37:57.395Z,2.60
2019-03-27T18:41:01.491Z,2.45
2019-03-27T18:44:05.766Z,2.37
2019-03-27T18:47:09.943Z,2.75
2019-03-27T18:50:14.342Z,2.70
2019-03-27T18:53:18.484Z,2.20
2019-03-27T18:56:22.605Z,2.62
2019-03-27T18:59:31.361Z,2.08
2019-03-27T19:02:35.852Z,2.60
2019-03-27T19:05:40.077Z,2.30
2019-03-27T19:08:44.385Z,3.00
2019-03-27T19:11:48.648Z,2.80
2019-03-27T19:14:52.901Z,2.55
2019-03-27T19:17:57.416Z,2.55
2019-03-27T19:21:01.679Z,2.30
2019-03-27T19:24:14.771Z,2.60
2019-03-27T19:27:11.736Z,2.40
2019-03-27T19:30:15.921Z,2.30
2019-03-27T19:33:20.421Z,2.45
2019-03-27T19:36:24.518Z,2.47
2019-03-27T19:39:28.630Z,2.70
2019-03-27T19:42:33.693Z,2.47
2019-03-27T19:45:37.898Z,2.70
2019-03-27T19:48:41.988Z,2.60
2019-03-27T19:51:46.156Z,2.60
2019-03-27T19:54:50.428Z,2.45
2019-03-27T19:57:54.614Z,2.80
2019-03-27T20:01:00.008Z,2.50
2019-03-27T20:04:04.201Z,2.50
2019-03-27T20:07:09.403Z,2.22
2019-03-27T20:10:13.840Z,2.27
2019-03-27T20:13:19.977Z,2.30
2019-03-27T20:16:24.383Z,2.65
2019-03-27T20:19:28.509Z,2.40
2019-03-27T20:22:32.879Z,2.58
2019-03-27T20:25:37.178Z,2.58
2019-03-27T20:28:42.546Z,2.50
2019-03-27T20:31:46.899Z,2.60
2019-03-27T20:34:51.273Z,2.47
2019-03-27T20:37:55.589Z,2.22
2019-03-27T20:40:59.905Z,2.72
2019-03-27T20:44:04.023Z,2.55
2019-03-27T20:47:08.181Z,2.30
2019-03-27T20:50:13.502Z,2.75
2019-03-27T20:53:17.842Z,2.62
2019-03-27T20:56:21.919Z,2.40
2019-03-27T20:59:26.186Z,2.77
2019-03-27T21:02:30.352Z,3.00
2019-03-27T21:05:35.283Z,2.40
2019-03-27T21:08:39.824Z,2.80
2019-03-27T21:11:44.184Z,2.90
2019-03-27T21:14:48.365Z,2.95
2019-03-27T21:17:53.840Z,2.77
2019-03-27T21:20:58.165Z,2.92
2019-03-27T21:24:03.174Z,2.40
2019-03-27T21:27:07.387Z,2.85
2019-03-27T21:30:11.773Z,2.95
2019-03-27T21:33:16.164Z,2.80
2019-03-27T21:36:20.334Z,2.60
2019-03-27T21:39:26.501Z,2.40
2019-03-27T21:42:30.829Z,3.25
2019-03-27T21:45:34.949Z,2.47
2019-03-27T21:48:39.053Z,2.55
2019-03-27T21:51:45.354Z,2.33
2019-03-27T21:54:49.529Z,2.80
2019-03-27T21:57:53.945Z,2.87
2019-03-27T22:00:58.397Z,2.52
2019-03-27T22:04:02.490Z,2.40
2019-03-27T22:07:06.611Z,2.60
2019-03-27T22:10:10.819Z,2.80
2019-03-27T22:13:15.049Z,2.62
2019-03-27T22:16:19.164Z,2.70
2019-03-27T22:19:23.273Z,2.40
2019-03-27T22:22:28.415Z,2.47
2019-03-27T22:25:36.242Z,2.75
2019-03-27T22:28:38.321Z,2.37
2019-03-27T22:31:42.402Z,2.50
2019-03-27T22:34:46.610Z,2.70
2019-03-27T22:37:51.872Z,2.47
2019-03-27T22:40:58.138Z,2.50
2019-03-27T22:44:02.217Z,2.42
2019-03-27T22:47:06.470Z,2.55
2019-03-27T22:50:12.209Z,2.42
2019-03-27T22:53:16.322Z,2.45
2019-03-27T22:56:20.437Z,2.58
2019-03-27T22:59:24.575Z,2.52
2019-03-27T23:02:28.688Z,2.58
2019-03-27T23:05:32.793Z,2.80
2019-03-27T23:08:36.907Z,2.40
2019-03-27T23:11:41.012Z,2.77
2019-03-27T23:14:45.129Z,2.80
2019-03-27T23:17:49.449Z,2.40
2019-03-27T23:20:53.596Z,2.67
2019-03-27T23:23:57.689Z,2.58
2019-03-27T23:27:03.857Z,2.27
2019-03-27T23:30:08.019Z,2.92
2019-03-27T23:33:20.289Z,2.85
2019-03-27T23:36:23.970Z,2.87
2019-03-27T23:39:28.174Z,3.08
2019-03-27T23:42:32.476Z,2.90
2019-03-27T23:45:37.549Z,2.80
2019-03-27T23:48:41.741Z,2.90
2019-03-27T23:51:45.991Z,2.60
2019-03-27T23:54:50.089Z,2.80
2019-03-27T23:57:54.223Z,2.87
